Time;durP1;ratioP1;P1;durP2;ratioP2;P2;SDS_P1;SDS_P2;PMS_P1;PMS_P2;Temp;Humidity;BMP_temperature;BMP_pressure;BME280_temperature;BME280_humidity;BME280_pressure;Samples;Min_cycle;Max_cycle;Signal;HPM_P1;HPM_P2
2023/04/02 00:02:31;;;;;;;1.20;0.60;;;;;;;0.00;100.00;59042.03;10404461;28;20644;-71
2023/04/02 00:07:32;;;;;;;1.98;0.52;;;;;;;0.00;100.00;59042.03;10406325;28;20478;-71
2023/04/02 00:12:33;;;;;;;0.55;0.40;;;;;;;0.00;100.00;59042.03;10399082;28;20376;-71
2023/04/02 00:17:33;;;;;;;2.38;0.30;;;;;;;0.00;100.00;59042.03;10406915;28;20028;-71
2023/04/02 00:22:33;;;;;;;0.77;0.65;;;;;;;0.00;100.00;59042.03;10406340;28;20029;-69
2023/04/02 00:27:35;;;;;;;3.40;0.93;;;;;;;0.00;100.00;59042.03;10399084;28;20029;-71
2023/04/02 00:32:36;;;;;;;1.65;0.50;;;;;;;0.00;100.00;59042.03;10398424;28;20025;-71
2023/04/02 00:37:40;;;;;;;0.75;0.35;;;;;;;0.00;100.00;59042.03;10407242;28;20028;-71
2023/04/02 00:42:42;;;;;;;0.20;0.20;;;;;;;0.00;100.00;59042.03;10395297;28;20084;-71
2023/04/02 00:47:43;;;;;;;0.40;0.40;;;;;;;0.00;100.00;59042.03;10393923;28;20037;-70
2023/04/02 00:52:47;;;;;;;7.03;0.60;;;;;;;0.00;100.00;59042.03;10404386;28;20493;-71
2023/04/02 00:57:49;;;;;;;2.17;0.25;;;;;;;0.00;100.00;59042.03;10403517;28;20079;-71
2023/04/02 01:03:15;;;;;;;1.85;0.20;;;;;;;0.00;100.00;59042.03;10394496;28;20021;-72
2023/04/02 01:08:54;;;;;;;0.55;0.20;;;;;;;0.00;100.00;59042.03;10405049;28;20118;-72
2023/04/02 01:14:00;;;;;;;8.48;2.15;;;;;;;0.00;100.00;59042.03;10387991;28;20076;-72
2023/04/02 01:19:32;;;;;;;5.38;2.42;;;;;;;0.00;100.00;59042.03;10403388;28;20111;-71
2023/04/02 01:24:36;;;;;;;6.90;3.05;;;;;;;0.00;100.00;59042.03;10404037;28;20033;-71
2023/04/02 01:29:40;;;;;;;4.05;3.03;;;;;;;0.00;100.00;59042.03;10398337;28;20060;-71
2023/04/02 01:34:43;;;;;;;4.82;2.63;;;;;;;0.00;100.00;59042.03;10385435;28;20032;-71
2023/04/02 01:39:44;;;;;;;3.92;2.92;;;;;;;0.00;100.00;59042.03;10400722;28;20136;-71
2023/04/02 01:44:50;;;;;;;3.90;2.55;;;;;;;0.00;100.00;59042.03;10393661;28;20038;-71
2023/04/02 01:50:01;;;;;;;5.93;2.45;;;;;;;0.00;100.00;59042.03;10411090;28;20025;-70
2023/04/02 01:55:02;;;;;;;8.30;2.03;;;;;;;0.00;100.00;59042.03;10394514;28;20423;-70
2023/04/02 02:00:11;;;;;;;4.80;1.13;;;;;;;0.00;100.00;59042.03;10396590;28;20024;-70
2023/04/02 02:05:14;;;;;;;4.40;1.20;;;;;;;0.00;100.00;59042.03;10402005;28;20020;-71
2023/04/02 02:10:22;;;;;;;4.38;1.58;;;;;;;0.00;100.00;59042.03;10395514;28;20020;-71
2023/04/02 02:15:23;;;;;;;4.70;2.85;;;;;;;0.00;100.00;59042.03;10396389;28;20431;-71
2023/04/02 02:20:26;;;;;;;6.78;2.88;;;;;;;0.00;100.00;59042.03;10395874;28;20422;-70
2023/04/02 02:25:31;;;;;;;6.25;3.15;;;;;;;0.00;100.00;59042.03;10382489;28;20344;-71
2023/04/02 02:31:05;;;;;;;3.63;2.78;;;;;;;0.00;100.00;59042.03;10392158;28;20032;-71
2023/04/02 02:36:06;;;;;;;4.82;3.28;;;;;;;0.00;100.00;59042.03;10374998;28;20037;-70
2023/04/02 02:41:20;;;;;;;5.45;3.45;;;;;;;0.00;100.00;59042.03;10412365;28;20036;-70
2023/04/02 02:46:24;;;;;;;8.95;2.78;;;;;;;0.00;100.00;59042.03;10395614;28;20039;-71
2023/04/02 02:51:48;;;;;;;6.85;3.45;;;;;;;0.00;100.00;59042.03;10402489;28;20053;-71
2023/04/02 02:56:55;;;;;;;7.28;2.90;;;;;;;0.00;100.00;59042.03;10409914;28;20037;-71
2023/04/02 03:01:57;;;;;;;5.10;2.63;;;;;;;0.00;100.00;59042.03;10404831;28;20028;-71
2023/04/02 03:06:59;;;;;;;5.03;3.13;;;;;;;0.00;100.00;59042.03;10399502;28;20101;-70
2023/04/02 03:12:34;;;;;;;5.10;2.72;;;;;;;0.00;100.00;59042.03;10412784;28;20045;-70
2023/04/02 03:17:46;;;;;;;5.25;2.65;;;;;;;0.00;100.00;59042.03;10373294;28;20053;-71
2023/04/02 03:23:13;;;;;;;6.38;3.10;;;;;;;0.00;100.00;59042.03;10399324;28;20040;-71
2023/04/02 03:28:26;;;;;;;5.40;3.65;;;;;;;0.00;100.00;59042.03;10412140;28;20029;-71
2023/04/02 03:33:32;;;;;;;8.02;2.70;;;;;;;0.00;100.00;59042.03;10391805;28;20420;-71
2023/04/02 03:38:40;;;;;;;7.38;3.15;;;;;;;0.00;100.00;59042.03;10416837;28;20410;-71
2023/04/02 03:43:51;;;;;;;6.10;2.63;;;;;;;0.00;100.00;59042.03;10382591;28;20483;-71
2023/04/02 03:48:56;;;;;;;4.53;2.83;;;;;;;0.00;100.00;59042.03;10391424;28;20453;-71
2023/04/02 03:53:57;;;;;;;8.27;3.17;;;;;;;0.00;100.00;59042.03;10410031;28;20049;-72
2023/04/02 03:59:25;;;;;;;7.97;3.88;;;;;;;0.00;100.00;59042.03;10405892;28;20043;-71
2023/04/02 04:04:29;;;;;;;4.60;2.28;;;;;;;0.00;100.00;59042.03;10390324;28;20037;-70
2023/04/02 04:09:34;;;;;;;4.95;3.13;;;;;;;0.00;100.00;59042.03;10407090;28;20098;-71
2023/04/02 04:14:39;;;;;;;5.32;3.20;;;;;;;0.00;100.00;59042.03;10406101;28;20329;-70
2023/04/02 04:19:45;;;;;;;6.85;2.65;;;;;;;0.00;100.00;59042.03;10401788;28;20036;-71
2023/04/02 04:24:46;;;;;;;5.90;2.80;;;;;;;0.00;100.00;59042.03;10399393;28;20490;-71
2023/04/02 04:30:19;;;;;;;5.60;3.33;;;;;;;0.00;100.00;59042.03;10409552;28;20032;-71
2023/04/02 04:35:35;;;;;;;8.70;3.80;;;;;;;0.00;100.00;59042.03;10403500;28;20396;-71
2023/04/02 04:40:41;;;;;;;4.68;3.47;;;;;;;0.00;100.00;59042.03;10407567;28;20039;-71
2023/04/02 04:45:48;;;;;;;6.22;3.35;;;;;;;0.00;100.00;59042.03;10399350;28;20134;-71
2023/04/02 04:50:55;;;;;;;4.37;2.70;;;;;;;0.00;100.00;59042.03;10403873;28;20022;-71
2023/04/02 04:55:58;;;;;;;6.63;3.33;;;;;;;0.00;100.00;59042.03;10392765;28;20914;-70
2023/04/02 05:01:06;;;;;;;6.80;3.13;;;;;;;0.00;100.00;59042.03;10377134;28;20029;-72
2023/04/02 05:06:33;;;;;;;5.07;2.72;;;;;;;0.00;100.00;59042.03;10391875;28;20017;-72
2023/04/02 05:11:45;;;;;;;5.95;2.60;;;;;;;0.00;100.00;59042.03;10390795;28;20033;-72
2023/04/02 05:16:51;;;;;;;3.95;2.22;;;;;;;0.00;100.00;59042.03;10388604;28;20664;-72
2023/04/02 05:22:39;;;;;;;3.83;2.35;;;;;;;0.00;100.00;59042.03;10391228;28;20025;-72
2023/04/02 05:27:51;;;;;;;4.68;2.08;;;;;;;0.00;100.00;59042.03;10382939;28;20045;-72
2023/04/02 05:33:16;;;;;;;5.45;2.10;;;;;;;0.00;100.00;59042.03;10384888;28;20040;-72
2023/04/02 05:38:23;;;;;;;5.47;2.55;;;;;;;0.00;100.00;59042.03;10397390;28;20051;-73
2023/04/02 05:43:26;;;;;;;8.48;4.10;;;;;;;0.00;100.00;59042.03;10392864;28;20035;-72
2023/04/02 05:48:35;;;;;;;5.72;2.75;;;;;;;0.00;100.00;59042.03;10393855;28;20026;-72
2023/04/02 05:53:55;;;;;;;6.20;2.80;;;;;;;0.00;100.00;59042.03;10388147;28;20041;-73
2023/04/02 05:59:18;;;;;;;7.53;3.15;;;;;;;0.00;100.00;59042.03;10380646;28;20180;-72
2023/04/02 06:04:43;;;;;;;8.90;4.47;;;;;;;0.00;100.00;59042.03;10374184;28;20468;-71
2023/04/02 06:09:50;;;;;;;7.68;2.53;;;;;;;0.00;100.00;59042.03;10373334;28;20175;-71
2023/04/02 06:14:50;;;;;;;11.25;3.30;;;;;;;0.00;100.00;59042.03;10342730;28;20057;-71
2023/04/02 06:19:53;;;;;;;7.82;3.33;;;;;;;0.00;100.00;59042.03;10341255;28;20036;-72
2023/04/02 06:25:02;;;;;;;6.25;3.10;;;;;;;0.00;100.00;59042.03;10335628;28;20097;-71
2023/04/02 06:30:06;;;;;;;6.05;2.78;;;;;;;0.00;100.00;59042.03;10342121;28;20034;-71
2023/04/02 06:35:12;;;;;;;3.13;2.03;;;;;;;0.00;100.00;59042.03;10338229;28;20026;-73
2023/04/02 06:40:27;;;;;;;4.25;2.10;;;;;;;0.00;100.00;59042.03;10336445;28;20487;-74
2023/04/02 06:45:33;;;;;;;7.65;3.17;;;;;;;0.00;100.00;59042.03;10345787;28;20295;-72
2023/04/02 06:51:00;;;;;;;11.23;4.40;;;;;;;0.00;100.00;59042.03;10339999;28;20032;-72
2023/04/02 06:56:10;;;;;;;7.60;3.22;;;;;;;0.00;100.00;59042.03;10341979;28;20508;-71
2023/04/02 07:01:16;;;;;;;11.30;3.25;;;;;;;0.00;100.00;59042.03;10347383;28;20057;-74
2023/04/02 07:06:20;;;;;;;7.93;2.95;;;;;;;0.00;100.00;59042.03;10349573;28;20025;-73
2023/04/02 07:11:21;;;;;;;8.52;2.60;;;;;;;0.00;100.00;59042.03;10342105;28;20064;-75
2023/04/02 07:16:24;;;;;;;4.03;2.88;;;;;;;0.00;100.00;59042.03;10351880;28;20037;-74
2023/04/02 07:21:26;;;;;;;4.07;3.10;;;;;;;0.00;100.00;59042.03;10348111;28;20033;-71
2023/04/02 07:26:27;;;;;;;6.43;3.20;;;;;;;0.00;100.00;59042.03;10352717;28;20034;-73
2023/04/02 07:31:28;;;;;;;11.13;3.20;;;;;;;0.00;100.00;59042.03;10356922;28;20465;-72
2023/04/02 07:36:29;;;;;;;6.18;3.47;;;;;;;0.00;100.00;59042.03;10357094;28;20720;-72
2023/04/02 07:41:29;;;;;;;7.55;3.15;;;;;;;0.00;100.00;59042.03;10358405;28;20025;-74
2023/04/02 07:46:30;;;;;;;10.48;4.35;;;;;;;0.00;100.00;59042.03;10373034;28;20021;-72
2023/04/02 07:51:30;;;;;;;5.00;1.63;;;;;;;0.00;100.00;59042.03;10401850;28;20056;-73
2023/04/02 07:56:31;;;;;;;5.13;1.30;;;;;;;0.00;100.00;59042.03;10395060;28;20367;-73
2023/04/02 08:01:35;;;;;;;5.30;2.47;;;;;;;0.00;100.00;59042.03;10402334;28;20056;-73
2023/04/02 08:06:35;;;;;;;5.65;1.45;;;;;;;0.00;100.00;59042.03;10392588;28;20031;-72
2023/04/02 08:11:36;;;;;;;16.93;2.80;;;;;;;0.00;100.00;59042.03;10390272;28;20356;-71
2023/04/02 08:16:51;;;;;;;4.07;0.80;;;;;;;0.00;100.00;59042.03;10400566;28;20025;-72
2023/04/02 08:21:52;;;;;;;9.05;0.50;;;;;;;0.00;100.00;59042.03;10390813;28;20059;-72
2023/04/02 08:26:53;;;;;;;0.88;0.43;;;;;;;0.00;100.00;59042.03;10395773;28;20147;-72
2023/04/02 08:31:53;;;;;;;1.00;0.73;;;;;;;0.00;100.00;59042.03;10395182;28;20033;-71
2023/04/02 08:36:57;;;;;;;3.55;0.60;;;;;;;0.00;100.00;59042.03;10389746;28;20111;-72
2023/04/02 08:42:22;;;;;;;1.15;0.30;;;;;;;0.00;100.00;59042.03;10385653;28;20398;-72
2023/04/02 08:47:24;;;;;;;4.78;2.13;;;;;;;0.00;100.00;59042.03;10390067;28;20040;-73
2023/04/02 08:52:36;;;;;;;2.83;0.60;;;;;;;0.00;100.00;59042.03;10390219;28;20112;-72
2023/04/02 08:57:46;;;;;;;6.15;1.00;;;;;;;0.00;100.00;59042.03;10390311;28;20045;-73
2023/04/02 09:03:05;;;;;;;1.38;0.38;;;;;;;0.00;100.00;59042.03;10389000;28;20096;-72
2023/04/02 09:08:19;;;;;;;2.60;1.40;;;;;;;0.00;100.00;59042.03;10386901;28;20068;-70
2023/04/02 09:13:26;;;;;;;2.30;0.63;;;;;;;0.00;100.00;59042.03;10390555;28;20368;-71
2023/04/02 09:18:29;;;;;;;3.72;0.60;;;;;;;0.00;100.00;59042.03;10390593;28;20028;-72
2023/04/02 09:23:29;;;;;;;1.58;0.60;;;;;;;0.00;100.00;59042.03;10388299;28;20024;-72
2023/04/02 09:28:31;;;;;;;1.35;0.45;;;;;;;0.00;100.00;59042.03;10381306;28;20400;-73
2023/04/02 09:33:48;;;;;;;2.33;0.43;;;;;;;0.00;100.00;59042.03;10399507;28;20126;-73
2023/04/02 09:38:58;;;;;;;0.50;0.38;;;;;;;0.00;100.00;59042.03;10395199;28;20025;-73
2023/04/02 09:44:20;;;;;;;2.17;0.45;;;;;;;0.00;100.00;59042.03;10392480;28;20032;-73
2023/04/02 09:49:24;;;;;;;0.68;0.25;;;;;;;0.00;100.00;59042.03;10394830;28;20148;-72
2023/04/02 09:54:25;;;;;;;2.85;0.50;;;;;;;0.00;100.00;59042.03;10393923;28;20110;-73
2023/04/02 09:59:26;;;;;;;1.20;0.50;;;;;;;0.00;100.00;59042.03;10401860;28;20517;-72
2023/04/02 10:04:33;;;;;;;1.02;0.50;;;;;;;0.00;100.00;59042.03;10399090;28;20033;-71
2023/04/02 10:09:37;;;;;;;2.00;0.67;;;;;;;0.00;100.00;59042.03;10399567;28;20155;-71
2023/04/02 10:14:44;;;;;;;1.88;0.35;;;;;;;0.00;100.00;59042.03;10400801;28;20021;-73
2023/04/02 10:19:53;;;;;;;2.28;0.32;;;;;;;0.00;100.00;59042.03;10401174;28;20025;-73
2023/04/02 10:24:53;;;;;;;2.88;0.47;;;;;;;0.00;100.00;59042.03;10381284;28;20024;-73
2023/04/02 10:30:14;;;;;;;2.73;0.50;;;;;;;0.00;100.00;59042.03;10401812;28;20494;-72
2023/04/02 10:35:52;;;;;;;1.45;0.32;;;;;;;0.00;100.00;59042.03;10380056;28;20040;-73
2023/04/02 10:41:18;;;;;;;0.75;0.40;;;;;;;0.00;100.00;59042.03;10380550;28;20017;-72
2023/04/02 10:46:31;;;;;;;0.65;0.30;;;;;;;0.00;100.00;59042.03;10394744;28;20117;-72
2023/04/02 10:51:45;;;;;;;1.08;0.70;;;;;;;0.00;100.00;59042.03;10389578;28;20029;-72
2023/04/02 10:56:47;;;;;;;3.10;0.85;;;;;;;0.00;100.00;59042.03;10394850;28;20059;-73
2023/04/02 11:01:50;;;;;;;1.00;0.40;;;;;;;0.00;100.00;59042.03;10393436;28;20035;-73
2023/04/02 11:06:57;;;;;;;2.13;0.20;;;;;;;0.00;100.00;59042.03;10385151;28;20028;-71
2023/04/02 11:12:00;;;;;;;1.30;0.50;;;;;;;0.00;100.00;59042.03;10396221;28;20075;-72
2023/04/02 11:17:04;;;;;;;0.95;0.38;;;;;;;0.00;100.00;59042.03;10393092;28;20090;-72
2023/04/02 11:22:20;;;;;;;1.85;0.30;;;;;;;0.00;100.00;59042.03;10397361;28;20020;-72
2023/04/02 11:27:32;;;;;;;0.98;0.40;;;;;;;0.00;100.00;59042.03;10397887;28;20036;-71
2023/04/02 11:32:44;;;;;;;1.13;0.40;;;;;;;0.00;100.00;59042.03;10396660;28;20028;-71
2023/04/02 11:37:44;;;;;;;4.97;0.82;;;;;;;0.00;100.00;59042.03;10392253;28;20055;-71
2023/04/02 11:42:49;;;;;;;0.25;0.22;;;;;;;0.00;100.00;59042.03;10395402;28;20027;-71
2023/04/02 11:47:58;;;;;;;1.55;0.30;;;;;;;0.00;100.00;59042.03;10404341;28;20044;-71
2023/04/02 11:53:11;;;;;;;0.57;0.47;;;;;;;0.00;100.00;59042.03;10392566;28;20057;-72
2023/04/02 11:58:36;;;;;;;3.25;0.73;;;;;;;0.00;100.00;59042.03;10389234;28;20495;-72
2023/04/02 12:03:55;;;;;;;2.97;0.70;;;;;;;0.00;100.00;59042.03;10387288;28;20029;-72
2023/04/02 12:09:04;;;;;;;2.45;0.65;;;;;;;0.00;100.00;59042.03;10384815;28;20033;-72
2023/04/02 12:14:40;;;;;;;1.98;0.90;;;;;;;0.00;100.00;59042.03;10399453;28;20111;-71
2023/04/02 12:19:46;;;;;;;6.22;2.40;;;;;;;0.00;100.00;59042.03;10393775;28;20045;-71
2023/04/02 12:24:48;;;;;;;5.40;1.00;;;;;;;0.00;100.00;59042.03;10394012;28;20514;-70
2023/04/02 12:29:50;;;;;;;1.02;0.55;;;;;;;0.00;100.00;59042.03;10394340;28;20025;-71
2023/04/02 12:34:52;;;;;;;2.53;0.80;;;;;;;0.00;100.00;59042.03;10391664;28;20438;-69
2023/04/02 12:39:56;;;;;;;5.75;0.80;;;;;;;0.00;100.00;59042.03;10383193;28;20455;-72
2023/04/02 12:44:57;;;;;;;0.95;0.60;;;;;;;0.00;100.00;59042.03;10396357;28;20539;-73
2023/04/02 12:49:59;;;;;;;4.03;0.50;;;;;;;0.00;100.00;59042.03;10389918;28;20127;-72
2023/04/02 12:55:02;;;;;;;4.40;0.70;;;;;;;0.00;100.00;59042.03;10395899;28;20045;-72
2023/04/02 13:00:26;;;;;;;0.93;0.47;;;;;;;0.00;100.00;59042.03;10388212;28;20053;-72
2023/04/02 13:05:44;;;;;;;0.73;0.38;;;;;;;0.00;100.00;59042.03;10385793;28;20033;-72
2023/04/02 13:10:50;;;;;;;2.33;0.50;;;;;;;0.00;100.00;59042.03;10412469;28;20063;-72
2023/04/02 13:16:23;;;;;;;2.15;0.55;;;;;;;0.00;100.00;59042.03;10389725;28;20033;-72
2023/04/02 13:21:28;;;;;;;0.43;0.35;;;;;;;0.00;100.00;59042.03;10390265;28;20037;-72
2023/04/02 13:26:29;;;;;;;1.83;0.60;;;;;;;0.00;100.00;59042.03;10391874;28;20852;-72
2023/04/02 13:31:30;;;;;;;2.58;0.60;;;;;;;0.00;100.00;59042.03;10391040;28;20122;-72
2023/04/02 13:36:31;;;;;;;6.55;0.80;;;;;;;0.00;100.00;59042.03;10392223;28;20116;-72
2023/04/02 13:41:43;;;;;;;2.38;0.50;;;;;;;0.00;100.00;59042.03;10396824;28;20029;-72
2023/04/02 13:46:43;;;;;;;1.30;0.20;;;;;;;0.00;100.00;59042.03;10393162;28;20067;-72
2023/04/02 13:51:58;;;;;;;1.20;0.60;;;;;;;0.00;100.00;59042.03;10397681;28;20043;-72
2023/04/02 13:56:59;;;;;;;0.30;0.30;;;;;;;0.00;100.00;59042.03;10389595;28;20291;-71
2023/04/02 14:02:12;;;;;;;4.18;0.82;;;;;;;0.00;100.00;59042.03;10370259;28;20033;-70
2023/04/02 14:07:30;;;;;;;0.45;0.20;;;;;;;0.00;100.00;59042.03;10383117;28;20090;-71
2023/04/02 14:12:51;;;;;;;0.50;0.30;;;;;;;0.00;100.00;59042.03;10380629;28;20035;-71
2023/04/02 14:18:29;;;;;;;0.85;0.22;;;;;;;0.00;100.00;59042.03;10390580;28;20029;-72
2023/04/02 14:23:59;;;;;;;0.30;0.30;;;;;;;0.00;100.00;59042.03;10393103;28;20039;-71
2023/04/02 14:29:13;;;;;;;0.90;0.60;;;;;;;0.00;100.00;59042.03;10624475;22;20049;-72
2023/04/02 14:34:23;;;;;;;1.85;0.50;;;;;;;0.00;100.00;59042.03;10361170;28;20492;-72
2023/04/02 14:39:52;;;;;;;0.88;0.45;;;;;;;0.00;100.00;59042.03;10362612;28;20029;-71
2023/04/02 14:45:06;;;;;;;3.03;0.40;;;;;;;0.00;100.00;59042.03;10359571;28;20045;-72
2023/04/02 14:50:22;;;;;;;0.55;0.38;;;;;;;0.00;100.00;59042.03;10362486;28;20029;-71
2023/04/02 14:55:31;;;;;;;3.08;0.65;;;;;;;0.00;100.00;59042.03;10363199;28;20819;-81
2023/04/02 15:00:42;;;;;;;2.78;0.55;;;;;;;0.00;100.00;59042.03;10367525;28;20029;-80
2023/04/02 15:05:51;;;;;;;1.38;0.52;;;;;;;0.00;100.00;59042.03;10386290;28;20434;-81
2023/04/02 15:11:06;;;;;;;2.67;1.17;;;;;;;0.00;100.00;59042.03;10362631;28;20404;-76
2023/04/02 15:16:22;;;;;;;1.20;0.50;;;;;;;0.00;100.00;59042.03;10356712;28;20028;-72
2023/04/02 15:21:37;;;;;;;1.10;0.73;;;;;;;0.00;100.00;59042.03;10362933;28;20044;-78
2023/04/02 15:26:53;;;;;;;1.48;0.70;;;;;;;0.00;100.00;59042.03;10363701;28;20037;-81
2023/04/02 15:32:04;;;;;;;3.28;1.00;;;;;;;0.00;100.00;59042.03;10367494;28;20124;-72
2023/04/02 15:37:25;;;;;;;3.42;1.85;;;;;;;0.00;100.00;59042.03;10362698;28;20045;-74
2023/04/02 15:42:34;;;;;;;1.60;0.70;;;;;;;0.00;100.00;59042.03;10358521;28;20033;-75
2023/04/02 15:48:02;;;;;;;4.30;0.75;;;;;;;0.00;100.00;59042.03;10362327;28;20033;-77
2023/04/02 15:53:12;;;;;;;2.28;1.00;;;;;;;0.00;100.00;59042.03;10355167;28;20025;-74
2023/04/02 15:58:36;;;;;;;3.97;1.23;;;;;;;0.00;100.00;59042.03;10356039;28;20132;-76
2023/04/02 16:03:37;;;;;;;1.77;1.00;;;;;;;0.00;100.00;59042.03;10377403;28;20045;-73
2023/04/02 16:08:55;;;;;;;2.40;0.70;;;;;;;0.00;100.00;59042.03;10354000;28;20029;-71
2023/04/02 16:14:18;;;;;;;0.85;0.50;;;;;;;0.00;100.00;59042.03;10353011;28;20508;-79
2023/04/02 16:19:37;;;;;;;1.40;0.60;;;;;;;0.00;100.00;59042.03;10381816;28;20172;-80
2023/04/02 16:24:37;;;;;;;1.65;0.60;;;;;;;0.00;100.00;59042.03;10368778;28;20040;-72
2023/04/02 16:29:57;;;;;;;6.25;0.68;;;;;;;0.00;100.00;59042.03;10363049;28;20060;-71
2023/04/02 16:35:18;;;;;;;3.58;0.63;;;;;;;0.00;100.00;59042.03;10361383;28;20029;-73
2023/04/02 16:40:37;;;;;;;2.90;0.68;;;;;;;0.00;100.00;59042.03;10368987;28;20029;-74
2023/04/02 16:46:01;;;;;;;1.52;1.00;;;;;;;0.00;100.00;59042.03;10357412;28;20037;-71
2023/04/02 16:51:02;;;;;;;3.22;1.95;;;;;;;0.00;100.00;59042.03;10350538;28;20132;-71
2023/04/02 16:56:05;;;;;;;10.68;1.60;;;;;;;0.00;100.00;59042.03;10354322;28;20164;-70
2023/04/02 17:01:11;;;;;;;6.18;2.00;;;;;;;0.00;100.00;59042.03;10351132;28;20041;-70
2023/04/02 17:06:18;;;;;;;7.18;1.60;;;;;;;0.00;100.00;59042.03;10356810;28;20054;-72
2023/04/02 17:11:27;;;;;;;8.48;2.58;;;;;;;0.00;100.00;59042.03;10347635;28;20588;-70
2023/04/02 17:16:42;;;;;;;5.70;2.55;;;;;;;0.00;100.00;59042.03;10346084;28;20026;-70
2023/04/02 17:21:46;;;;;;;6.13;2.33;;;;;;;0.00;100.00;59042.03;10348014;28;20084;-70
2023/04/02 17:26:51;;;;;;;6.63;2.30;;;;;;;0.00;100.00;59042.03;10349050;28;20133;-71
2023/04/02 17:31:56;;;;;;;8.10;1.95;;;;;;;0.00;100.00;59042.03;10347731;28;20058;-70
2023/04/02 17:37:22;;;;;;;4.72;2.20;;;;;;;0.00;100.00;59042.03;10347360;28;20037;-69
2023/04/02 17:42:41;;;;;;;6.95;1.77;;;;;;;0.00;100.00;59042.03;10356023;28;20114;-70
2023/04/02 17:47:54;;;;;;;3.70;2.05;;;;;;;0.00;100.00;59042.03;10354803;28;20034;-71
2023/04/02 17:53:07;;;;;;;6.25;2.90;;;;;;;0.00;100.00;59042.03;10360448;28;20108;-72
2023/04/02 17:58:11;;;;;;;7.85;2.55;;;;;;;0.00;100.00;59042.03;10351072;28;20686;-70
2023/04/02 18:03:46;;;;;;;5.63;2.38;;;;;;;0.00;100.00;59042.03;10350205;28;20038;-71
2023/04/02 18:09:08;;;;;;;6.55;2.55;;;;;;;0.00;100.00;59042.03;10355696;28;20500;-74
2023/04/02 18:14:26;;;;;;;3.38;1.65;;;;;;;0.00;100.00;59042.03;10349177;28;20029;-77
2023/04/02 18:19:46;;;;;;;;;;;;;;;0.00;100.00;59042.03;10356896;28;20041;-80
2023/04/02 18:25:04;;;;;;;6.60;2.33;;;;;;;0.00;100.00;59042.03;10358374;28;20379;-87
2023/04/02 18:30:31;;;;;;;2.85;2.00;;;;;;;0.00;100.00;59042.03;10359318;28;20053;-71
2023/04/02 18:35:34;;;;;;;5.50;2.63;;;;;;;0.00;100.00;59042.03;10351966;28;20108;-71
2023/04/02 18:40:50;;;;;;;7.50;2.83;;;;;;;0.00;100.00;59042.03;10355676;28;20446;-80
2023/04/02 18:46:03;;;;;;;12.07;2.97;;;;;;;0.00;100.00;59042.03;10364602;28;20065;-72
2023/04/02 18:51:07;;;;;;;12.95;3.20;;;;;;;0.00;100.00;59042.03;10360077;28;20037;-71
2023/04/02 18:56:15;;;;;;;6.00;2.35;;;;;;;0.00;100.00;59042.03;10354113;28;20048;-69
2023/04/02 19:01:20;;;;;;;;;;;;;;;0.00;100.00;59042.03;10351856;28;20121;-70
2023/04/02 19:06:34;;;;;;;5.38;1.98;;;;;;;0.00;100.00;59042.03;10355649;28;20311;-70
2023/04/02 19:11:34;;;;;;;6.70;1.83;;;;;;;0.00;100.00;59042.03;10379504;28;20530;-71
2023/04/02 19:16:43;;;;;;;4.30;1.90;;;;;;;0.00;100.00;59042.03;10381975;28;20033;-70
2023/04/02 19:22:06;;;;;;;7.47;2.15;;;;;;;0.00;100.00;59042.03;10387911;28;20344;-70
2023/04/02 19:27:32;;;;;;;4.97;2.45;;;;;;;0.00;100.00;59042.03;10386479;28;20472;-70
2023/04/02 19:32:56;;;;;;;3.40;1.70;;;;;;;0.00;100.00;59042.03;10376915;28;20061;-71
2023/04/02 19:38:17;;;;;;;2.67;1.73;;;;;;;0.00;100.00;59042.03;10400675;28;20034;-69
2023/04/02 19:43:18;;;;;;;3.05;1.63;;;;;;;0.00;100.00;59042.03;10374601;28;20026;-70
2023/04/02 19:48:23;;;;;;;4.07;1.98;;;;;;;0.00;100.00;59042.03;10383775;28;20025;-69
2023/04/02 19:53:23;;;;;;;3.47;1.70;;;;;;;0.00;100.00;59042.03;10386291;28;20025;-69
2023/04/02 19:58:32;;;;;;;6.03;1.80;;;;;;;0.00;100.00;59042.03;10387494;28;20040;-69
2023/04/02 20:03:33;;;;;;;3.20;1.77;;;;;;;0.00;100.00;59042.03;10383376;28;20036;-69
2023/04/02 20:08:35;;;;;;;4.20;1.88;;;;;;;0.00;100.00;59042.03;10385574;28;20080;-69
2023/04/02 20:13:35;;;;;;;5.80;2.35;;;;;;;0.00;100.00;59042.03;10382074;28;20029;-69
2023/04/02 20:18:36;;;;;;;6.40;2.28;;;;;;;0.00;100.00;59042.03;10383742;28;20025;-70
2023/04/02 20:23:36;;;;;;;4.03;1.85;;;;;;;0.00;100.00;59042.03;10384444;28;20029;-69
2023/04/02 20:28:37;;;;;;;9.48;2.30;;;;;;;0.00;100.00;59042.03;10381050;28;20816;-70
2023/04/02 20:33:38;;;;;;;11.95;2.75;;;;;;;0.00;100.00;59042.03;10379457;28;20349;-70
2023/04/02 20:38:39;;;;;;;4.45;1.90;;;;;;;0.00;100.00;59042.03;10385862;28;20029;-70
2023/04/02 20:43:41;;;;;;;8.85;2.50;;;;;;;0.00;100.00;59042.03;10384635;28;20026;-70
2023/04/02 20:48:42;;;;;;;6.20;2.65;;;;;;;0.00;100.00;59042.03;10383517;28;20024;-70
2023/04/02 20:53:42;;;;;;;9.27;2.47;;;;;;;0.00;100.00;59042.03;10384400;28;20381;-70
2023/04/02 20:58:43;;;;;;;5.38;2.30;;;;;;;0.00;100.00;59042.03;10384838;28;20021;-70
2023/04/02 21:03:45;;;;;;;8.07;2.83;;;;;;;0.00;100.00;59042.03;10399642;28;20463;-70
2023/04/02 21:08:46;;;;;;;6.32;2.85;;;;;;;0.00;100.00;59042.03;10384591;28;20031;-70
2023/04/02 21:13:47;;;;;;;7.72;2.95;;;;;;;0.00;100.00;59042.03;10381877;28;20052;-71
2023/04/02 21:18:50;;;;;;;5.75;2.58;;;;;;;0.00;100.00;59042.03;10382427;28;20124;-69
2023/04/02 21:23:59;;;;;;;6.65;3.20;;;;;;;0.00;100.00;59042.03;10384295;28;20049;-70
2023/04/02 21:29:00;;;;;;;5.88;2.55;;;;;;;0.00;100.00;59042.03;10382227;28;20042;-69
2023/04/02 21:34:01;;;;;;;5.00;2.75;;;;;;;0.00;100.00;59042.03;10383986;28;20492;-70
2023/04/02 21:39:19;;;;;;;5.05;2.75;;;;;;;0.00;100.00;59042.03;10383141;28;20415;-69
2023/04/02 21:44:22;;;;;;;4.97;2.43;;;;;;;0.00;100.00;59042.03;10383575;28;20017;-70
2023/04/02 21:49:24;;;;;;;3.97;2.40;;;;;;;0.00;100.00;59042.03;10383958;28;20524;-70
2023/04/02 21:54:24;;;;;;;4.55;2.70;;;;;;;0.00;100.00;59042.03;10384001;28;20036;-69
2023/04/02 21:59:25;;;;;;;8.80;2.42;;;;;;;0.00;100.00;59042.03;10383841;28;20025;-68
2023/04/02 22:04:27;;;;;;;9.68;3.22;;;;;;;0.00;100.00;59042.03;10383653;28;20119;-69
2023/04/02 22:09:28;;;;;;;8.45;2.63;;;;;;;0.00;100.00;59042.03;10381505;28;20026;-69
2023/04/02 22:14:29;;;;;;;6.15;2.47;;;;;;;0.00;100.00;59042.03;10382932;28;20079;-69
2023/04/02 22:19:31;;;;;;;5.00;2.28;;;;;;;0.00;100.00;59042.03;10383221;28;20341;-69
2023/04/02 22:24:32;;;;;;;5.55;3.55;;;;;;;0.00;100.00;59042.03;10383105;28;20013;-69
2023/04/02 22:29:32;;;;;;;5.43;2.97;;;;;;;0.00;100.00;59042.03;10356872;28;20048;-69
2023/04/02 22:34:33;;;;;;;4.60;2.90;;;;;;;0.00;100.00;59042.03;10382655;28;20288;-69
2023/04/02 22:39:33;;;;;;;4.95;3.00;;;;;;;0.00;100.00;59042.03;10382815;28;20021;-69
2023/04/02 22:44:34;;;;;;;6.07;2.43;;;;;;;0.00;100.00;59042.03;10380996;28;20515;-69
2023/04/02 22:49:34;;;;;;;4.93;2.57;;;;;;;0.00;100.00;59042.03;10383283;28;20271;-69
2023/04/02 22:54:34;;;;;;;5.50;3.17;;;;;;;0.00;100.00;59042.03;10389009;28;20400;-69
2023/04/02 22:59:35;;;;;;;9.70;3.10;;;;;;;0.00;100.00;59042.03;10376462;28;20268;-69
2023/04/02 23:04:35;;;;;;;6.22;3.35;;;;;;;0.00;100.00;59042.03;10389965;28;20044;-70
2023/04/02 23:09:36;;;;;;;4.63;2.58;;;;;;;0.00;100.00;59042.03;10384392;28;20510;-70
2023/04/02 23:14:36;;;;;;;4.13;2.67;;;;;;;0.00;100.00;59042.03;10387651;28;20029;-69
2023/04/02 23:19:37;;;;;;;5.27;3.33;;;;;;;0.00;100.00;59042.03;10389979;28;20121;-69
2023/04/02 23:24:37;;;;;;;10.85;3.25;;;;;;;0.00;100.00;59042.03;10389061;28;20267;-70
2023/04/02 23:29:38;;;;;;;5.25;3.17;;;;;;;0.00;100.00;59042.03;10388850;28;20484;-70
2023/04/02 23:34:38;;;;;;;6.97;2.70;;;;;;;0.00;100.00;59042.03;10391870;28;20408;-70
2023/04/02 23:39:39;;;;;;;5.00;3.17;;;;;;;0.00;100.00;59042.03;10388973;28;20029;-70
2023/04/02 23:44:39;;;;;;;4.68;2.92;;;;;;;0.00;100.00;59042.03;10388491;28;20044;-70
2023/04/02 23:49:46;;;;;;;5.83;2.63;;;;;;;0.00;100.00;59042.03;10389103;28;20017;-70
2023/04/02 23:54:46;;;;;;;8.00;2.63;;;;;;;0.00;100.00;59042.03;10388193;28;21048;-69